Aviation Digital Data Service (ADDS)

Output produced by METARs form (0534 UTC 11 December 2017)
found at http://www.aviationweather.gov/adds/metars/
 
OEAB 110500Z 00000KT CAVOK 10/M04 Q1029 NOSIG
TAF OEAB 110400Z 1106/1115 17006G16KT 7000 FEW020
       
OEAH 110500Z 33010KT CAVOK 10/M09 Q1024 NOSIG
TAF OEAH 102300Z 1100/1206 32011G22KT 8000 SKC 
     TEMPO 1100/1112 5000 DU BLDU
       
OEBA 110500Z 15005KT CAVOK 10/00 Q1026 NOSIG
TAF OEBA 102300Z 1100/1206 VRB03KT 8000 SKC 
     BECMG 1106/1108 12006G16KT 
     TEMPO 1106/1116 5000 DU
       
OESK 110500Z 00000KT CAVOK 08/M09 Q1024 NOSIG
TAF OESK 102300Z 1100/1206 VRB03KT 8000 FEW040 SCT100 
     TEMPO 1100/1112 SCT40 
     BECMG 1106/1108 36013KT
       
OERR 110500Z 30005KT CAVOK 04/M05 Q1024 NOSIG
TAF OERR 102300Z 1100/1206 VRB03KT CAVOK 
     BECMG 1108/1110 35013KT
       
OEBH 110500Z 00000KT CAVOK 08/M07 Q1026 NOSIG
TAF OEBH 102300Z 1100/1206 VRB03KT 8000 SKC 
     BECMG 1106/1108 11005G15KT 
     TEMPO 1106/1116 4000 DU BLDU
       
OEGS 110500Z 00000KT CAVOK 07/02 Q1025
TAF OEGS 102300Z 1100/1206 VRB03KT 8000 FEW040 SCT100 
     TEMPO 1100/1112 SCT040 
     BECMG 1106/1108 20013KT
       
OEGT 110500Z 27006KT CAVOK 03/M09 Q1024
TAF OEGT 102300Z 1100/1206 VRB03KT CAVOK 
     BECMG 1106/1108 36008KT
       
OEHL 110500Z 20012KT CAVOK 08/M05 Q1025 NOSIG
TAF OEHL 102300Z 1100/1206 VRB03KT CAVOK 
     BECMG 1106/1108 22013KT
       
OEGN 110500Z 13008KT CAVOK 24/14 Q1018 NOSIG
TAF OEGN 110400Z 1106/1115 16008KT 7000 FEW030 
     BECMG 1108/1110 24006G16KT
       
OEDR 110500Z 30013KT CAVOK 11/M06 Q1023 NOSIG
TAF OEDR 110205Z 1106/1212 33017KT CAVOK 
     BECMG 1116/1118 29009KT
       
OEJN 110500Z 03004KT 8000 SKC 23/03 Q1017 NOSIG
TAF OEJN 110400Z 1106/1212 08008KT 7000 NSC 
     BECMG 1110/1112 22006G16KT
       
OEDF 110500Z 30012KT CAVOK 11/M06 Q1025 NOSIG
TAF OEDF 110205Z 1106/1212 33017KT CAVOK 
     BECMG 1116/1118 29009KT
       
OEKM 110500Z 16005KT CAVOK 10/M04 Q1028 NOSIG
TAF OEKM 110400Z 1106/1115 17006G16KT 7000 FEW020
       
OERK 110500Z 00000KT CAVOK 07/M09 Q1027 NOSIG
TAF OERK 110400Z 1106/1212 34006G16KT 8000 SKC 
     TEMPO 1110/1116 4000 DU BLDU
       
TAF OEKK 110400Z 1106/1120 28008G18KT 7000 SKC 
     TEMPO 1106/1116 4000 DU BLDU
       
OENG 110500Z 00000KT CAVOK 07/M10 Q1027 NOSIG
TAF OENG 102300Z 1100/1206 VRB03KT 8000 SKC 
     TEMPO 1100/1112 4000 DU BLDU 
     BECMG 1108/1110 08010KT
       
OEMA 110500Z 00000KT 7000 SKC 13/M06 Q1026 NOSIG
TAF OEMA 110400Z 1106/1212 12008G18KT 7000 SKC 
     TEMPO 1110/1116 4000 DU BLDU
       
OEPA 110500Z 26004KT CAVOK 05/M02 Q1026 NOSIG
TAF OEPA 102300Z 1100/1206 VRB03KT CAVOK 
     BECMG 1106/1108 29013KT
       
OERF 110500Z 16005KT CAVOK 05/M12 Q1024
TAF OERF 102300Z 1100/1206 VRB03KT CAVOK 
     BECMG 1106/1108 23008KT 
     BECMG 1109/1111 30011KT
       
TAF OERY 102300Z 1100/1206 33006G16KT 8000 SKC
       
OESH 110500Z 24003KT CAVOK 05/02 Q1027 NOSIG
TAF OESH 102300Z 1100/1206 VRB03KT 7000 SKC 
     BECMG 1108/1110 05011KT
       
OETB 110500Z 08003KT CAVOK 05/M07 Q1024 NOSIG
TAF OETB 110400Z 1106/1115 36006G16KT 7000 FEW040
       
OETF 110500Z 16006KT 8000 SKC 11/M02 Q1025 NOSIG
TAF OETF 110400Z 1106/1124 12008G18KT 7000 FEW030 
     TEMPO 1110/1116 3500 DU BLDU
       
OETR 110500Z 05004KT CAVOK 03/M06 Q1024
TAF OETR 102300Z 1100/1206 VRB03KT 8000 FEW040 SCT100 
     TEMPO 1100/1112 SCT040 
     BECMG 1106/1108 05013KT
       
OEWD 110500Z 36006KT CAVOK 06/M05 Q1026 NOSIG
TAF OEWD 102300Z 1100/1206 VRB03KT 7000 SKC 
     BECMG 1108/1110 10011KT
       
OEWJ 110500Z 04004KT CAVOK 17/08 Q1019 NOSIG
TAF OEWJ 102300Z 1100/1206 08011G22KT 8000 SKC 
     TEMPO 1100/1112 4000 DU BLDU 
       
OEYN 110500Z 06002KT CAVOK 15/13 Q1017 NOSIG
TAF OEYN 110400Z 1106/1115 08006G16KT 7000 NSC 
     BECMG 1110/1112 30014KT